sensor_id;sensor_type;location;lat;lon;timestamp;P1;durP1;ratioP1;P2;durP2;ratioP2
21657;SDS011;10990;48.174;9.782;2022-10-31T00:00:27;11.90;;;6.85;;
21657;SDS011;10990;48.174;9.782;2022-10-31T00:02:54;11.47;;;6.97;;
21657;SDS011;10990;48.174;9.782;2022-10-31T00:05:21;12.90;;;6.70;;
21657;SDS011;10990;48.174;9.782;2022-10-31T00:07:51;10.23;;;6.77;;
21657;SDS011;10990;48.174;9.782;2022-10-31T00:10:18;11.00;;;6.83;;
21657;SDS011;10990;48.174;9.782;2022-10-31T00:12:46;9.45;;;6.18;;
21657;SDS011;10990;48.174;9.782;2022-10-31T00:15:13;10.53;;;6.77;;
21657;SDS011;10990;48.174;9.782;2022-10-31T00:17:40;11.52;;;6.72;;
21657;SDS011;10990;48.174;9.782;2022-10-31T00:20:07;10.60;;;6.60;;
21657;SDS011;10990;48.174;9.782;2022-10-31T00:22:34;9.45;;;6.57;;
21657;SDS011;10990;48.174;9.782;2022-10-31T00:25:01;11.77;;;7.57;;
21657;SDS011;10990;48.174;9.782;2022-10-31T00:27:29;10.50;;;7.30;;
21657;SDS011;10990;48.174;9.782;2022-10-31T00:29:57;11.17;;;7.13;;
21657;SDS011;10990;48.174;9.782;2022-10-31T00:32:23;13.23;;;6.60;;
21657;SDS011;10990;48.174;9.782;2022-10-31T00:34:50;10.53;;;6.40;;
21657;SDS011;10990;48.174;9.782;2022-10-31T00:37:17;8.33;;;6.40;;
21657;SDS011;10990;48.174;9.782;2022-10-31T00:39:44;8.97;;;6.50;;
21657;SDS011;10990;48.174;9.782;2022-10-31T00:42:14;10.03;;;6.40;;
21657;SDS011;10990;48.174;9.782;2022-10-31T00:44:42;10.97;;;6.60;;
21657;SDS011;10990;48.174;9.782;2022-10-31T00:47:10;12.00;;;6.83;;
21657;SDS011;10990;48.174;9.782;2022-10-31T00:49:37;10.43;;;7.07;;
21657;SDS011;10990;48.174;9.782;2022-10-31T00:52:04;8.93;;;6.43;;
21657;SDS011;10990;48.174;9.782;2022-10-31T00:54:30;8.37;;;6.17;;
21657;SDS011;10990;48.174;9.782;2022-10-31T00:56:57;9.97;;;6.60;;
21657;SDS011;10990;48.174;9.782;2022-10-31T00:59:24;10.20;;;6.33;;
21657;SDS011;10990;48.174;9.782;2022-10-31T01:01:51;10.60;;;7.23;;
21657;SDS011;10990;48.174;9.782;2022-10-31T01:04:19;10.93;;;7.20;;
21657;SDS011;10990;48.174;9.782;2022-10-31T01:06:48;12.03;;;7.43;;
21657;SDS011;10990;48.174;9.782;2022-10-31T01:09:15;10.67;;;7.33;;
21657;SDS011;10990;48.174;9.782;2022-10-31T01:11:42;11.00;;;7.17;;
21657;SDS011;10990;48.174;9.782;2022-10-31T01:14:09;10.47;;;6.93;;
21657;SDS011;10990;48.174;9.782;2022-10-31T01:16:36;10.43;;;6.87;;
21657;SDS011;10990;48.174;9.782;2022-10-31T01:19:03;9.83;;;6.60;;
21657;SDS011;10990;48.174;9.782;2022-10-31T01:21:31;10.37;;;6.63;;
21657;SDS011;10990;48.174;9.782;2022-10-31T01:23:58;11.30;;;6.97;;
21657;SDS011;10990;48.174;9.782;2022-10-31T01:26:27;11.37;;;7.07;;
21657;SDS011;10990;48.174;9.782;2022-10-31T01:28:56;12.27;;;7.70;;
21657;SDS011;10990;48.174;9.782;2022-10-31T01:31:25;12.93;;;8.13;;
21657;SDS011;10990;48.174;9.782;2022-10-31T01:33:53;13.67;;;7.27;;
21657;SDS011;10990;48.174;9.782;2022-10-31T01:36:21;11.87;;;8.00;;
21657;SDS011;10990;48.174;9.782;2022-10-31T01:38:51;12.53;;;7.60;;
21657;SDS011;10990;48.174;9.782;2022-10-31T01:41:20;11.27;;;7.40;;
21657;SDS011;10990;48.174;9.782;2022-10-31T01:43:49;13.10;;;7.30;;
21657;SDS011;10990;48.174;9.782;2022-10-31T01:46:20;12.60;;;7.53;;
21657;SDS011;10990;48.174;9.782;2022-10-31T01:48:51;12.27;;;7.63;;
21657;SDS011;10990;48.174;9.782;2022-10-31T01:51:20;14.07;;;8.37;;
21657;SDS011;10990;48.174;9.782;2022-10-31T01:53:51;12.23;;;7.60;;
21657;SDS011;10990;48.174;9.782;2022-10-31T01:56:21;13.20;;;7.70;;
21657;SDS011;10990;48.174;9.782;2022-10-31T01:58:49;11.70;;;7.90;;
21657;SDS011;10990;48.174;9.782;2022-10-31T02:01:17;10.20;;;7.00;;
21657;SDS011;10990;48.174;9.782;2022-10-31T02:03:44;9.37;;;6.70;;
21657;SDS011;10990;48.174;9.782;2022-10-31T02:06:16;8.47;;;6.20;;
21657;SDS011;10990;48.174;9.782;2022-10-31T02:08:50;8.37;;;6.50;;
21657;SDS011;10990;48.174;9.782;2022-10-31T02:11:20;9.13;;;6.57;;
21657;SDS011;10990;48.174;9.782;2022-10-31T02:13:47;8.73;;;6.60;;
21657;SDS011;10990;48.174;9.782;2022-10-31T02:16:14;8.23;;;6.07;;
21657;SDS011;10990;48.174;9.782;2022-10-31T02:18:43;7.53;;;6.10;;
21657;SDS011;10990;48.174;9.782;2022-10-31T02:21:11;10.07;;;6.10;;
21657;SDS011;10990;48.174;9.782;2022-10-31T02:26:47;9.57;;;7.13;;
21657;SDS011;10990;48.174;9.782;2022-10-31T02:32:25;25.93;;;8.10;;
21657;SDS011;10990;48.174;9.782;2022-10-31T02:34:57;39.70;;;8.33;;
21657;SDS011;10990;48.174;9.782;2022-10-31T02:37:33;26.27;;;7.90;;
21657;SDS011;10990;48.174;9.782;2022-10-31T02:40:05;17.73;;;7.20;;
21657;SDS011;10990;48.174;9.782;2022-10-31T02:43:05;16.10;;;7.03;;
21657;SDS011;10990;48.174;9.782;2022-10-31T02:45:38;22.80;;;7.90;;
21657;SDS011;10990;48.174;9.782;2022-10-31T02:48:16;16.17;;;8.13;;
21657;SDS011;10990;48.174;9.782;2022-10-31T02:50:47;16.67;;;8.83;;
21657;SDS011;10990;48.174;9.782;2022-10-31T02:53:18;16.70;;;8.43;;
21657;SDS011;10990;48.174;9.782;2022-10-31T02:55:55;21.13;;;9.00;;
21657;SDS011;10990;48.174;9.782;2022-10-31T02:58:26;14.20;;;8.63;;
21657;SDS011;10990;48.174;9.782;2022-10-31T03:01:00;21.03;;;8.00;;
21657;SDS011;10990;48.174;9.782;2022-10-31T03:03:56;12.30;;;7.30;;
21657;SDS011;10990;48.174;9.782;2022-10-31T03:06:45;9.00;;;6.57;;
21657;SDS011;10990;48.174;9.782;2022-10-31T03:09:19;13.20;;;8.13;;
21657;SDS011;10990;48.174;9.782;2022-10-31T03:11:56;15.67;;;8.10;;
21657;SDS011;10990;48.174;9.782;2022-10-31T03:14:30;12.77;;;8.10;;
21657;SDS011;10990;48.174;9.782;2022-10-31T03:17:05;16.63;;;9.03;;
21657;SDS011;10990;48.174;9.782;2022-10-31T03:19:38;15.10;;;8.77;;
21657;SDS011;10990;48.174;9.782;2022-10-31T03:22:12;17.20;;;8.43;;
21657;SDS011;10990;48.174;9.782;2022-10-31T03:24:43;25.97;;;9.03;;
21657;SDS011;10990;48.174;9.782;2022-10-31T03:27:14;18.87;;;8.30;;
21657;SDS011;10990;48.174;9.782;2022-10-31T03:29:44;14.60;;;8.63;;
21657;SDS011;10990;48.174;9.782;2022-10-31T03:32:15;15.40;;;8.30;;
21657;SDS011;10990;48.174;9.782;2022-10-31T03:34:47;13.13;;;8.37;;
21657;SDS011;10990;48.174;9.782;2022-10-31T03:37:17;11.47;;;8.07;;
21657;SDS011;10990;48.174;9.782;2022-10-31T03:39:47;14.57;;;8.67;;
21657;SDS011;10990;48.174;9.782;2022-10-31T03:42:17;14.37;;;8.20;;
21657;SDS011;10990;48.174;9.782;2022-10-31T03:44:53;13.03;;;9.00;;
21657;SDS011;10990;48.174;9.782;2022-10-31T03:47:26;20.53;;;8.70;;
21657;SDS011;10990;48.174;9.782;2022-10-31T03:49:54;14.70;;;8.33;;
21657;SDS011;10990;48.174;9.782;2022-10-31T03:52:23;17.20;;;8.30;;
21657;SDS011;10990;48.174;9.782;2022-10-31T03:54:56;16.80;;;8.50;;
21657;SDS011;10990;48.174;9.782;2022-10-31T03:57:29;26.10;;;8.60;;
21657;SDS011;10990;48.174;9.782;2022-10-31T04:00:05;12.20;;;7.83;;
21657;SDS011;10990;48.174;9.782;2022-10-31T04:02:43;15.07;;;7.80;;
21657;SDS011;10990;48.174;9.782;2022-10-31T04:05:18;16.47;;;8.00;;
21657;SDS011;10990;48.174;9.782;2022-10-31T04:07:47;14.33;;;8.03;;
21657;SDS011;10990;48.174;9.782;2022-10-31T04:10:19;14.93;;;7.50;;
21657;SDS011;10990;48.174;9.782;2022-10-31T04:12:49;16.37;;;8.30;;
21657;SDS011;10990;48.174;9.782;2022-10-31T04:15:24;15.33;;;8.17;;
21657;SDS011;10990;48.174;9.782;2022-10-31T04:17:53;20.10;;;8.63;;
21657;SDS011;10990;48.174;9.782;2022-10-31T04:20:30;16.07;;;8.87;;
21657;SDS011;10990;48.174;9.782;2022-10-31T04:22:58;20.07;;;9.33;;
21657;SDS011;10990;48.174;9.782;2022-10-31T04:25:25;25.47;;;10.27;;
21657;SDS011;10990;48.174;9.782;2022-10-31T04:27:53;17.37;;;8.97;;
21657;SDS011;10990;48.174;9.782;2022-10-31T04:30:22;15.03;;;8.83;;
21657;SDS011;10990;48.174;9.782;2022-10-31T04:32:49;12.50;;;8.73;;
21657;SDS011;10990;48.174;9.782;2022-10-31T04:35:16;10.97;;;8.33;;
21657;SDS011;10990;48.174;9.782;2022-10-31T04:37:46;12.47;;;7.80;;
21657;SDS011;10990;48.174;9.782;2022-10-31T04:40:13;14.13;;;8.33;;
21657;SDS011;10990;48.174;9.782;2022-10-31T04:42:58;14.20;;;8.40;;
21657;SDS011;10990;48.174;9.782;2022-10-31T04:45:25;15.33;;;9.03;;
21657;SDS011;10990;48.174;9.782;2022-10-31T04:47:52;12.20;;;8.60;;
21657;SDS011;10990;48.174;9.782;2022-10-31T04:50:19;14.27;;;9.10;;
21657;SDS011;10990;48.174;9.782;2022-10-31T04:52:48;14.23;;;8.13;;
21657;SDS011;10990;48.174;9.782;2022-10-31T04:55:19;13.87;;;8.23;;
21657;SDS011;10990;48.174;9.782;2022-10-31T04:58:14;13.13;;;8.80;;
21657;SDS011;10990;48.174;9.782;2022-10-31T05:00:42;11.40;;;8.23;;
21657;SDS011;10990;48.174;9.782;2022-10-31T05:03:11;12.70;;;8.43;;
21657;SDS011;10990;48.174;9.782;2022-10-31T05:05:38;14.03;;;8.47;;
21657;SDS011;10990;48.174;9.782;2022-10-31T05:08:06;18.67;;;9.20;;
21657;SDS011;10990;48.174;9.782;2022-10-31T05:10:33;21.30;;;8.40;;
21657;SDS011;10990;48.174;9.782;2022-10-31T05:13:01;10.63;;;8.17;;
21657;SDS011;10990;48.174;9.782;2022-10-31T05:15:47;15.13;;;7.93;;
21657;SDS011;10990;48.174;9.782;2022-10-31T05:18:34;15.20;;;8.23;;
21657;SDS011;10990;48.174;9.782;2022-10-31T05:21:24;19.83;;;7.73;;
21657;SDS011;10990;48.174;9.782;2022-10-31T05:23:55;20.20;;;7.97;;
21657;SDS011;10990;48.174;9.782;2022-10-31T05:26:23;18.23;;;7.50;;
21657;SDS011;10990;48.174;9.782;2022-10-31T05:28:52;12.63;;;7.97;;
21657;SDS011;10990;48.174;9.782;2022-10-31T05:31:19;22.47;;;9.53;;
21657;SDS011;10990;48.174;9.782;2022-10-31T05:33:47;12.30;;;7.30;;
21657;SDS011;10990;48.174;9.782;2022-10-31T05:36:33;11.27;;;7.90;;
21657;SDS011;10990;48.174;9.782;2022-10-31T05:39:11;13.57;;;7.97;;
21657;SDS011;10990;48.174;9.782;2022-10-31T05:41:52;14.73;;;8.40;;
21657;SDS011;10990;48.174;9.782;2022-10-31T05:44:21;16.13;;;9.20;;
21657;SDS011;10990;48.174;9.782;2022-10-31T05:47:17;13.60;;;8.40;;
21657;SDS011;10990;48.174;9.782;2022-10-31T05:50:23;13.20;;;8.63;;
21657;SDS011;10990;48.174;9.782;2022-10-31T05:52:59;12.97;;;8.57;;
21657;SDS011;10990;48.174;9.782;2022-10-31T05:55:34;11.87;;;8.67;;
21657;SDS011;10990;48.174;9.782;2022-10-31T05:58:13;13.43;;;8.30;;
21657;SDS011;10990;48.174;9.782;2022-10-31T06:00:47;15.67;;;8.90;;
21657;SDS011;10990;48.174;9.782;2022-10-31T06:03:14;11.17;;;7.50;;
21657;SDS011;10990;48.174;9.782;2022-10-31T06:05:45;9.87;;;7.30;;
21657;SDS011;10990;48.174;9.782;2022-10-31T06:08:12;13.47;;;7.57;;
21657;SDS011;10990;48.174;9.782;2022-10-31T06:10:42;14.97;;;8.47;;
21657;SDS011;10990;48.174;9.782;2022-10-31T06:13:10;18.70;;;8.90;;
21657;SDS011;10990;48.174;9.782;2022-10-31T06:15:42;20.33;;;8.50;;
21657;SDS011;10990;48.174;9.782;2022-10-31T06:18:10;13.23;;;8.40;;
21657;SDS011;10990;48.174;9.782;2022-10-31T06:20:46;11.70;;;8.20;;
21657;SDS011;10990;48.174;9.782;2022-10-31T06:23:12;11.53;;;8.53;;
21657;SDS011;10990;48.174;9.782;2022-10-31T06:25:43;11.47;;;8.20;;
21657;SDS011;10990;48.174;9.782;2022-10-31T06:28:14;13.93;;;8.53;;
21657;SDS011;10990;48.174;9.782;2022-10-31T06:30:49;12.67;;;8.23;;
21657;SDS011;10990;48.174;9.782;2022-10-31T06:33:16;14.23;;;8.77;;
21657;SDS011;10990;48.174;9.782;2022-10-31T06:35:53;15.90;;;9.20;;
21657;SDS011;10990;48.174;9.782;2022-10-31T06:38:20;12.53;;;8.93;;
21657;SDS011;10990;48.174;9.782;2022-10-31T06:40:49;12.70;;;9.23;;
21657;SDS011;10990;48.174;9.782;2022-10-31T06:43:21;13.60;;;8.13;;
21657;SDS011;10990;48.174;9.782;2022-10-31T06:45:54;12.97;;;8.53;;
21657;SDS011;10990;48.174;9.782;2022-10-31T06:48:25;13.13;;;8.93;;
21657;SDS011;10990;48.174;9.782;2022-10-31T06:51:18;11.67;;;8.17;;
21657;SDS011;10990;48.174;9.782;2022-10-31T06:53:46;14.83;;;8.50;;
21657;SDS011;10990;48.174;9.782;2022-10-31T06:56:16;16.77;;;9.00;;
21657;SDS011;10990;48.174;9.782;2022-10-31T06:58:48;11.73;;;8.63;;
21657;SDS011;10990;48.174;9.782;2022-10-31T07:01:18;12.70;;;8.73;;
21657;SDS011;10990;48.174;9.782;2022-10-31T07:03:46;15.87;;;9.73;;
21657;SDS011;10990;48.174;9.782;2022-10-31T07:06:13;12.43;;;8.70;;
21657;SDS011;10990;48.174;9.782;2022-10-31T07:08:40;14.73;;;7.77;;
21657;SDS011;10990;48.174;9.782;2022-10-31T07:11:07;16.47;;;8.57;;
21657;SDS011;10990;48.174;9.782;2022-10-31T07:13:36;12.03;;;8.33;;
21657;SDS011;10990;48.174;9.782;2022-10-31T07:16:06;13.80;;;8.37;;
21657;SDS011;10990;48.174;9.782;2022-10-31T07:18:35;18.53;;;8.17;;
21657;SDS011;10990;48.174;9.782;2022-10-31T07:21:03;14.63;;;8.33;;
21657;SDS011;10990;48.174;9.782;2022-10-31T07:23:30;10.43;;;7.47;;
21657;SDS011;10990;48.174;9.782;2022-10-31T07:26:29;13.33;;;8.17;;
21657;SDS011;10990;48.174;9.782;2022-10-31T07:28:58;11.10;;;8.23;;
21657;SDS011;10990;48.174;9.782;2022-10-31T07:31:26;15.27;;;8.43;;
21657;SDS011;10990;48.174;9.782;2022-10-31T07:33:57;36.97;;;9.65;;
21657;SDS011;10990;48.174;9.782;2022-10-31T07:36:24;20.13;;;8.70;;
21657;SDS011;10990;48.174;9.782;2022-10-31T07:38:54;40.87;;;9.37;;
21657;SDS011;10990;48.174;9.782;2022-10-31T07:41:21;25.05;;;8.80;;
21657;SDS011;10990;48.174;9.782;2022-10-31T07:43:48;17.77;;;8.10;;
21657;SDS011;10990;48.174;9.782;2022-10-31T07:46:16;26.57;;;8.10;;
21657;SDS011;10990;48.174;9.782;2022-10-31T07:49:01;24.15;;;9.07;;
21657;SDS011;10990;48.174;9.782;2022-10-31T07:51:54;18.58;;;8.00;;
21657;SDS011;10990;48.174;9.782;2022-10-31T07:54:40;16.75;;;8.10;;
21657;SDS011;10990;48.174;9.782;2022-10-31T07:57:07;16.40;;;8.43;;
21657;SDS011;10990;48.174;9.782;2022-10-31T07:59:36;19.33;;;8.15;;
21657;SDS011;10990;48.174;9.782;2022-10-31T08:02:07;24.48;;;9.13;;
21657;SDS011;10990;48.174;9.782;2022-10-31T08:04:46;17.33;;;9.18;;
21657;SDS011;10990;48.174;9.782;2022-10-31T08:07:39;10.95;;;7.85;;
21657;SDS011;10990;48.174;9.782;2022-10-31T08:10:12;12.55;;;7.18;;
21657;SDS011;10990;48.174;9.782;2022-10-31T08:12:39;12.77;;;6.97;;
21657;SDS011;10990;48.174;9.782;2022-10-31T08:15:07;11.02;;;6.97;;
21657;SDS011;10990;48.174;9.782;2022-10-31T08:17:37;13.45;;;7.40;;
21657;SDS011;10990;48.174;9.782;2022-10-31T08:20:04;11.32;;;7.25;;
21657;SDS011;10990;48.174;9.782;2022-10-31T08:22:38;9.88;;;6.95;;
21657;SDS011;10990;48.174;9.782;2022-10-31T08:25:05;10.30;;;7.35;;
21657;SDS011;10990;48.174;9.782;2022-10-31T08:27:32;12.15;;;7.63;;
21657;SDS011;10990;48.174;9.782;2022-10-31T08:30:00;9.27;;;6.72;;
21657;SDS011;10990;48.174;9.782;2022-10-31T08:32:26;10.68;;;6.60;;
21657;SDS011;10990;48.174;9.782;2022-10-31T08:34:57;8.93;;;6.45;;
21657;SDS011;10990;48.174;9.782;2022-10-31T08:37:30;10.48;;;6.28;;
21657;SDS011;10990;48.174;9.782;2022-10-31T08:39:57;8.23;;;5.95;;
21657;SDS011;10990;48.174;9.782;2022-10-31T08:42:24;10.63;;;6.28;;
21657;SDS011;10990;48.174;9.782;2022-10-31T08:44:51;8.80;;;5.72;;
21657;SDS011;10990;48.174;9.782;2022-10-31T08:47:20;8.43;;;6.00;;
21657;SDS011;10990;48.174;9.782;2022-10-31T08:49:47;10.05;;;6.07;;
21657;SDS011;10990;48.174;9.782;2022-10-31T08:52:16;6.88;;;5.40;;
21657;SDS011;10990;48.174;9.782;2022-10-31T08:54:45;8.52;;;5.70;;
21657;SDS011;10990;48.174;9.782;2022-10-31T08:57:31;10.65;;;5.60;;
21657;SDS011;10990;48.174;9.782;2022-10-31T08:59:58;9.13;;;5.68;;
21657;SDS011;10990;48.174;9.782;2022-10-31T09:02:54;9.15;;;5.75;;
21657;SDS011;10990;48.174;9.782;2022-10-31T09:05:21;7.80;;;5.68;;
21657;SDS011;10990;48.174;9.782;2022-10-31T09:07:49;9.32;;;5.57;;
21657;SDS011;10990;48.174;9.782;2022-10-31T09:10:16;10.45;;;5.85;;
21657;SDS011;10990;48.174;9.782;2022-10-31T09:12:44;7.55;;;5.45;;
21657;SDS011;10990;48.174;9.782;2022-10-31T09:15:26;8.90;;;5.38;;
21657;SDS011;10990;48.174;9.782;2022-10-31T09:18:07;8.32;;;5.63;;
21657;SDS011;10990;48.174;9.782;2022-10-31T09:20:48;11.23;;;5.70;;
21657;SDS011;10990;48.174;9.782;2022-10-31T09:23:18;9.40;;;5.70;;
21657;SDS011;10990;48.174;9.782;2022-10-31T09:25:47;7.47;;;5.20;;
21657;SDS011;10990;48.174;9.782;2022-10-31T09:28:27;7.40;;;4.47;;
21657;SDS011;10990;48.174;9.782;2022-10-31T09:30:59;6.78;;;4.28;;
21657;SDS011;10990;48.174;9.782;2022-10-31T09:33:52;8.07;;;4.38;;
21657;SDS011;10990;48.174;9.782;2022-10-31T09:36:34;8.88;;;4.70;;
21657;SDS011;10990;48.174;9.782;2022-10-31T09:39:04;7.75;;;5.00;;
21657;SDS011;10990;48.174;9.782;2022-10-31T09:41:37;10.77;;;4.95;;
21657;SDS011;10990;48.174;9.782;2022-10-31T09:44:18;7.40;;;4.82;;
21657;SDS011;10990;48.174;9.782;2022-10-31T09:46:54;11.55;;;5.32;;
21657;SDS011;10990;48.174;9.782;2022-10-31T09:49:36;9.70;;;5.20;;
21657;SDS011;10990;48.174;9.782;2022-10-31T09:52:18;10.50;;;5.07;;
21657;SDS011;10990;48.174;9.782;2022-10-31T09:54:51;9.43;;;4.90;;
21657;SDS011;10990;48.174;9.782;2022-10-31T09:57:23;9.02;;;5.20;;
21657;SDS011;10990;48.174;9.782;2022-10-31T09:59:53;10.38;;;5.35;;
21657;SDS011;10990;48.174;9.782;2022-10-31T10:02:23;10.98;;;5.35;;
21657;SDS011;10990;48.174;9.782;2022-10-31T10:04:56;7.97;;;5.25;;
21657;SDS011;10990;48.174;9.782;2022-10-31T10:07:28;9.65;;;5.88;;
21657;SDS011;10990;48.174;9.782;2022-10-31T10:10:28;9.88;;;5.20;;
21657;SDS011;10990;48.174;9.782;2022-10-31T10:13:25;8.38;;;5.03;;
21657;SDS011;10990;48.174;9.782;2022-10-31T10:16:09;7.40;;;4.80;;
21657;SDS011;10990;48.174;9.782;2022-10-31T10:18:45;11.38;;;6.32;;
21657;SDS011;10990;48.174;9.782;2022-10-31T10:21:23;9.80;;;5.85;;
21657;SDS011;10990;48.174;9.782;2022-10-31T10:24:00;10.45;;;6.50;;
21657;SDS011;10990;48.174;9.782;2022-10-31T10:26:40;12.55;;;6.68;;
21657;SDS011;10990;48.174;9.782;2022-10-31T10:29:17;9.23;;;6.50;;
21657;SDS011;10990;48.174;9.782;2022-10-31T10:31:56;11.73;;;7.30;;
21657;SDS011;10990;48.174;9.782;2022-10-31T10:34:28;13.07;;;7.25;;
21657;SDS011;10990;48.174;9.782;2022-10-31T10:37:01;12.95;;;6.60;;
21657;SDS011;10990;48.174;9.782;2022-10-31T10:39:32;9.15;;;5.45;;
21657;SDS011;10990;48.174;9.782;2022-10-31T10:42:09;11.73;;;7.05;;
21657;SDS011;10990;48.174;9.782;2022-10-31T10:44:55;13.75;;;7.45;;
21657;SDS011;10990;48.174;9.782;2022-10-31T10:47:42;11.40;;;6.63;;
21657;SDS011;10990;48.174;9.782;2022-10-31T10:50:12;15.07;;;7.43;;
21657;SDS011;10990;48.174;9.782;2022-10-31T10:52:43;15.18;;;8.05;;
21657;SDS011;10990;48.174;9.782;2022-10-31T10:55:22;15.48;;;8.70;;
21657;SDS011;10990;48.174;9.782;2022-10-31T10:57:58;17.70;;;8.50;;
21657;SDS011;10990;48.174;9.782;2022-10-31T11:00:27;20.33;;;11.88;;
21657;SDS011;10990;48.174;9.782;2022-10-31T11:02:57;19.75;;;10.77;;
21657;SDS011;10990;48.174;9.782;2022-10-31T11:05:25;16.75;;;10.45;;
21657;SDS011;10990;48.174;9.782;2022-10-31T11:07:56;17.23;;;11.13;;
21657;SDS011;10990;48.174;9.782;2022-10-31T11:10:23;19.13;;;11.13;;
21657;SDS011;10990;48.174;9.782;2022-10-31T11:13:00;18.02;;;10.68;;
21657;SDS011;10990;48.174;9.782;2022-10-31T11:15:31;19.45;;;11.63;;
21657;SDS011;10990;48.174;9.782;2022-10-31T11:18:01;21.23;;;11.38;;
21657;SDS011;10990;48.174;9.782;2022-10-31T11:20:30;25.48;;;14.90;;
21657;SDS011;10990;48.174;9.782;2022-10-31T11:23:04;31.25;;;17.45;;
21657;SDS011;10990;48.174;9.782;2022-10-31T11:25:54;34.38;;;17.45;;
21657;SDS011;10990;48.174;9.782;2022-10-31T11:28:24;32.17;;;17.55;;
21657;SDS011;10990;48.174;9.782;2022-10-31T11:30:52;26.92;;;16.73;;
21657;SDS011;10990;48.174;9.782;2022-10-31T11:33:22;27.75;;;16.02;;
21657;SDS011;10990;48.174;9.782;2022-10-31T11:35:53;25.00;;;15.27;;
21657;SDS011;10990;48.174;9.782;2022-10-31T11:38:21;26.73;;;14.95;;
21657;SDS011;10990;48.174;9.782;2022-10-31T11:40:51;25.63;;;15.65;;
21657;SDS011;10990;48.174;9.782;2022-10-31T11:43:19;30.13;;;16.45;;
21657;SDS011;10990;48.174;9.782;2022-10-31T11:45:48;25.98;;;15.82;;
21657;SDS011;10990;48.174;9.782;2022-10-31T11:48:16;25.88;;;15.18;;
21657;SDS011;10990;48.174;9.782;2022-10-31T11:50:47;27.23;;;16.58;;
21657;SDS011;10990;48.174;9.782;2022-10-31T11:53:16;26.35;;;15.77;;
21657;SDS011;10990;48.174;9.782;2022-10-31T11:55:45;26.15;;;15.68;;
21657;SDS011;10990;48.174;9.782;2022-10-31T11:58:22;28.63;;;16.33;;
21657;SDS011;10990;48.174;9.782;2022-10-31T12:00:53;27.45;;;14.88;;
21657;SDS011;10990;48.174;9.782;2022-10-31T12:03:35;23.45;;;14.68;;
21657;SDS011;10990;48.174;9.782;2022-10-31T12:06:12;23.63;;;13.85;;
21657;SDS011;10990;48.174;9.782;2022-10-31T12:08:44;27.17;;;15.85;;
21657;SDS011;10990;48.174;9.782;2022-10-31T12:11:15;25.30;;;15.55;;
21657;SDS011;10990;48.174;9.782;2022-10-31T12:13:59;27.02;;;15.48;;
21657;SDS011;10990;48.174;9.782;2022-10-31T12:16:39;26.63;;;15.27;;
21657;SDS011;10990;48.174;9.782;2022-10-31T12:19:15;23.63;;;14.77;;
21657;SDS011;10990;48.174;9.782;2022-10-31T12:21:59;28.58;;;16.33;;
21657;SDS011;10990;48.174;9.782;2022-10-31T12:24:42;24.98;;;15.23;;
21657;SDS011;10990;48.174;9.782;2022-10-31T12:27:28;26.50;;;15.30;;
21657;SDS011;10990;48.174;9.782;2022-10-31T12:30:12;26.77;;;15.20;;
21657;SDS011;10990;48.174;9.782;2022-10-31T12:32:52;27.08;;;14.88;;
21657;SDS011;10990;48.174;9.782;2022-10-31T12:35:36;27.67;;;15.18;;
21657;SDS011;10990;48.174;9.782;2022-10-31T12:38:17;25.83;;;15.98;;
21657;SDS011;10990;48.174;9.782;2022-10-31T12:41:06;25.15;;;15.38;;
21657;SDS011;10990;48.174;9.782;2022-10-31T12:43:48;23.73;;;14.15;;
21657;SDS011;10990;48.174;9.782;2022-10-31T12:46:25;25.48;;;13.52;;
21657;SDS011;10990;48.174;9.782;2022-10-31T12:49:07;28.13;;;14.48;;
21657;SDS011;10990;48.174;9.782;2022-10-31T12:51:46;22.63;;;13.43;;
21657;SDS011;10990;48.174;9.782;2022-10-31T12:54:23;21.05;;;12.77;;
21657;SDS011;10990;48.174;9.782;2022-10-31T12:57:04;22.48;;;13.50;;
21657;SDS011;10990;48.174;9.782;2022-10-31T12:59:40;26.92;;;13.70;;
21657;SDS011;10990;48.174;9.782;2022-10-31T13:02:12;23.80;;;13.73;;
21657;SDS011;10990;48.174;9.782;2022-10-31T13:04:46;21.63;;;13.10;;
21657;SDS011;10990;48.174;9.782;2022-10-31T13:07:19;20.95;;;12.45;;
21657;SDS011;10990;48.174;9.782;2022-10-31T13:10:03;20.83;;;12.35;;
21657;SDS011;10990;48.174;9.782;2022-10-31T13:12:35;19.92;;;12.02;;
21657;SDS011;10990;48.174;9.782;2022-10-31T13:15:04;19.83;;;12.63;;
21657;SDS011;10990;48.174;9.782;2022-10-31T13:17:40;19.85;;;12.48;;
21657;SDS011;10990;48.174;9.782;2022-10-31T13:20:18;21.48;;;12.55;;
21657;SDS011;10990;48.174;9.782;2022-10-31T13:22:49;19.80;;;12.43;;
21657;SDS011;10990;48.174;9.782;2022-10-31T13:25:20;20.10;;;12.10;;
21657;SDS011;10990;48.174;9.782;2022-10-31T13:27:52;24.08;;;12.70;;
21657;SDS011;10990;48.174;9.782;2022-10-31T13:30:23;26.58;;;13.48;;
21657;SDS011;10990;48.174;9.782;2022-10-31T13:32:54;19.58;;;11.43;;
21657;SDS011;10990;48.174;9.782;2022-10-31T13:35:28;19.98;;;12.52;;
21657;SDS011;10990;48.174;9.782;2022-10-31T13:38:04;21.92;;;12.73;;
21657;SDS011;10990;48.174;9.782;2022-10-31T13:40:39;22.08;;;12.55;;
21657;SDS011;10990;48.174;9.782;2022-10-31T13:43:16;17.98;;;11.27;;
21657;SDS011;10990;48.174;9.782;2022-10-31T13:45:50;17.45;;;11.38;;
21657;SDS011;10990;48.174;9.782;2022-10-31T13:48:18;21.70;;;11.32;;
21657;SDS011;10990;48.174;9.782;2022-10-31T13:51:04;20.10;;;11.27;;
21657;SDS011;10990;48.174;9.782;2022-10-31T13:53:36;18.05;;;11.30;;
21657;SDS011;10990;48.174;9.782;2022-10-31T13:56:16;22.90;;;11.18;;
21657;SDS011;10990;48.174;9.782;2022-10-31T13:59:00;18.50;;;11.57;;
21657;SDS011;10990;48.174;9.782;2022-10-31T14:01:51;22.85;;;12.80;;
21657;SDS011;10990;48.174;9.782;2022-10-31T14:04:22;22.90;;;12.88;;
21657;SDS011;10990;48.174;9.782;2022-10-31T14:06:56;23.70;;;12.25;;
21657;SDS011;10990;48.174;9.782;2022-10-31T14:09:31;20.80;;;11.75;;
21657;SDS011;10990;48.174;9.782;2022-10-31T14:12:02;19.65;;;11.35;;
21657;SDS011;10990;48.174;9.782;2022-10-31T14:14:40;20.17;;;11.02;;
21657;SDS011;10990;48.174;9.782;2022-10-31T14:17:18;17.45;;;10.40;;
21657;SDS011;10990;48.174;9.782;2022-10-31T14:20:00;16.67;;;11.13;;
21657;SDS011;10990;48.174;9.782;2022-10-31T14:22:48;23.80;;;12.35;;
21657;SDS011;10990;48.174;9.782;2022-10-31T14:25:25;23.23;;;12.10;;
21657;SDS011;10990;48.174;9.782;2022-10-31T14:27:53;21.30;;;12.43;;
21657;SDS011;10990;48.174;9.782;2022-10-31T14:30:21;21.77;;;13.50;;
21657;SDS011;10990;48.174;9.782;2022-10-31T14:32:53;24.20;;;14.15;;
21657;SDS011;10990;48.174;9.782;2022-10-31T14:35:23;17.67;;;12.50;;
21657;SDS011;10990;48.174;9.782;2022-10-31T14:37:59;19.67;;;13.00;;
21657;SDS011;10990;48.174;9.782;2022-10-31T14:40:48;19.08;;;12.27;;
21657;SDS011;10990;48.174;9.782;2022-10-31T14:43:38;20.58;;;12.63;;
21657;SDS011;10990;48.174;9.782;2022-10-31T14:46:25;22.65;;;12.32;;
21657;SDS011;10990;48.174;9.782;2022-10-31T14:49:12;20.45;;;12.38;;
21657;SDS011;10990;48.174;9.782;2022-10-31T14:51:48;20.13;;;12.07;;
21657;SDS011;10990;48.174;9.782;2022-10-31T14:54:19;17.10;;;11.43;;
21657;SDS011;10990;48.174;9.782;2022-10-31T14:56:52;17.80;;;11.52;;
21657;SDS011;10990;48.174;9.782;2022-10-31T14:59:22;18.65;;;11.40;;
21657;SDS011;10990;48.174;9.782;2022-10-31T15:01:54;17.17;;;11.68;;
21657;SDS011;10990;48.174;9.782;2022-10-31T15:04:25;21.05;;;11.52;;
21657;SDS011;10990;48.174;9.782;2022-10-31T15:06:54;16.65;;;11.38;;
21657;SDS011;10990;48.174;9.782;2022-10-31T15:09:28;22.88;;;12.63;;
21657;SDS011;10990;48.174;9.782;2022-10-31T15:11:57;19.50;;;11.77;;
21657;SDS011;10990;48.174;9.782;2022-10-31T15:14:25;21.38;;;12.70;;